Αναφορές METAR Αεροδρομίων

 

LGTS - THESSALONIKI - GREECE
Ενημερώθηκε: 13/08/2020 22:20
Αίθριος
Αίθριος
 Ανεμος από varies
Ανεμος: varies 6 km/h
Θερμοκρασία: 24°C
Σημείο Δρόσου: 18°C
Υγρασία: 69%
Βαρόμετρο: 1015 hPa
Περίληψη: Αίθριος
Visibility: greater than 10 km
2020/08/13 19:20 LGTS 131920Z VRB03KT CAVOK 24/18 Q1015 NOSIG
LGLR - LARTISA - GREECE
Ενημερώθηκε: 13/08/2020 21:50
Αραιές Νεφώσεις
Αραιές Νεφώσεις
 Ανεμος από ΑΒΑ
Ανεμος: ΑΒΑ 9 km/h
Θερμοκρασία: 25°C
Σημείο Δρόσου: 16°C
Υγρασία: 57%
Βαρόμετρο: 1014 hPa
Clouds: Αραιές Νεφώσεις
Visibility: 10 km
Cloud details: Αραιές Νεφώσεις 914 m
2020/08/13 18:50 LGLR 131850Z 07005KT 9999 FEW030 25/16 Q1014 RMK FEW080 BLU
 
LGKZ - KOZANI - GREECE
Ενημερώθηκε: 13/08/2020 22:20

 Ανεμος από calm
Ανεμος: Απνοια
Θερμοκρασία: 22°C
Σημείο Δρόσου: 15°C
Υγρασία: 65%
Βαρόμετρο: 1018 hPa
2020/08/13 19:20 LGKZ 131920Z AUTO 00000KT //// // ////// 22/15 Q1018 RE//
LGKV - KAVALA - GREECE
Ενημερώθηκε: 13/08/2020 22:20
Αραιές Νεφώσεις
Αραιές Νεφώσεις
 Ανεμος από ΝΑ
Ανεμος: ΝΑ 7 km/h
Θερμοκρασία: 25°C
Σημείο Δρόσου: 20°C
Υγρασία: 74%
Βαρόμετρο: 1014 hPa
Clouds: Αραιές Νεφώσεις
Visibility: 10 km
Cloud details: Αραιές Νεφώσεις 914 m
2020/08/13 19:20 LGKV 131920Z 14004KT 9999 FEW030 25/20 Q1014
 
LGIO - IOANNINA - GREECE
Ενημερώθηκε: 13/08/2020 22:20

 Ανεμος από varies
Ανεμος: varies 6 km/h
Θερμοκρασία: 24°C
Σημείο Δρόσου: 20°C
Υγρασία: 78%
Βαρόμετρο: 1016 hPa
2020/08/13 19:20 LGIO 131920Z AUTO VRB03KT //// // ////// 24/20 Q1016 RE//
LGBL - BOLOS - GREECE
Ενημερώθηκε: 13/08/2020 21:50
Αραιές Νεφώσεις
Αραιές Νεφώσεις
 Ανεμος από Α
Ανεμος: Α 6 km/h
Θερμοκρασία: 25°C
Σημείο Δρόσου: 15°C
Υγρασία: 54%
Βαρόμετρο: 1014 hPa
Clouds: Αραιές Νεφώσεις
Visibility: 10 km
Cloud details: Αραιές Νεφώσεις 914 m
2020/08/13 18:50 LGBL 131850Z 08003KT 9999 FEW030 25/15 Q1014
 
LGMT - MITILINI - GREECE
Ενημερώθηκε: 13/08/2020 22:20
Αίθριος
Αίθριος
 Ανεμος από ΒΔ
Ανεμος: ΒΔ 17 km/h
Θερμοκρασία: 26°C
Σημείο Δρόσου: 19°C
Υγρασία: 65%
Βαρόμετρο: 1012 hPa
Περίληψη: Αίθριος
Visibility: greater than 10 km
2020/08/13 19:20 LGMT 131920Z 32009KT CAVOK 26/19 Q1012
LGAV - ATHENS - GREECE
Ενημερώθηκε: 13/08/2020 22:50
Αίθριος
Αίθριος
 Ανεμος από varies
Ανεμος: varies 6 km/h
Θερμοκρασία: 26°C
Σημείο Δρόσου: 12°C
Υγρασία: 42%
Βαρόμετρο: 1014 hPa
Περίληψη: Αίθριος
Visibility: greater than 10 km
2020/08/13 19:50 LGAV 131950Z VRB03KT CAVOK 26/12 Q1014 NOSIG
 
LGRP - RODOS - GREECE
Ενημερώθηκε: 13/08/2020 22:50
Αίθριος
Αίθριος
 Ανεμος από ΔΝΔ
Ανεμος: ΔΝΔ 15 km/h
Θερμοκρασία: 29°C
Heat Index: 30°C
Σημείο Δρόσου: 19°C
Υγρασία: 55%
Βαρόμετρο: 1006 hPa
Περίληψη: Αίθριος
Visibility: greater than 10 km
2020/08/13 19:50 LGRP 131950Z 24008KT CAVOK 29/19 Q1006 NOSIG
LGIR - HRAKLIO/KRITI - GREECE
Ενημερώθηκε: 13/08/2020 22:50
Αίθριος
Αίθριος
 Ανεμος από ΒΔ
Ανεμος: ΒΔ 19 km/h
Θερμοκρασία: 27°C
Heat Index: 29°C
Σημείο Δρόσου: 20°C
Υγρασία: 66%
Βαρόμετρο: 1012 hPa
Περίληψη: Αίθριος
Visibility: greater than 10 km
2020/08/13 19:50 LGIR 131950Z 31010KT CAVOK 27/20 Q1012 NOSIG
 
LGMK - MIKONOS - GREECE
Ενημερώθηκε: 13/08/2020 22:20
Αίθριος
Αίθριος
 Ανεμος από Β
Ανεμος: Β 33 km/h, Ριπή: 52 km/h
Θερμοκρασία: 27°C
Heat Index: 28°C
Σημείο Δρόσου: 17°C
Υγρασία: 54%
Βαρόμετρο: 1011 hPa
Περίληψη: Αίθριος
Visibility: greater than 10 km
2020/08/13 19:20 LGMK 131920Z 35018G28KT CAVOK 27/17 Q1011
LGKR - KERKIRA - GREECE
Ενημερώθηκε: 13/08/2020 22:50
Αίθριος
Αίθριος
 Ανεμος από varies
Ανεμος: varies 0 km/h
Θερμοκρασία: 27°C
Heat Index: 28°C
Σημείο Δρόσου: 19°C
Υγρασία: 62%
Βαρόμετρο: 1012 hPa
Περίληψη: Αίθριος
Visibility: greater than 10 km
2020/08/13 19:50 LGKR 131950Z /////KT CAVOK 27/19 Q1012 NOSIG